Guidonia, Italy

7:06 AM CEST on May 30, 2015 (GMT +0200)
IROMAGUI3 | | Change Station
CLOSE
Current Station
Personal Weather Station
Location: Guidonia Montecelio, ROMA
Elevation: 331 ft
Nearby Weather Stations

Elev 331 ft 41.99 °N, 12.72 °E | Updated 29 seconds ago

Clear
Clear
55.2 °F
Feels Like 55.2 °F
N
0.0
Wind Variable Wind from NE
Gusts 0.0 mph

Today
High -- | Low -- °F
--% Chance of Precip.
Yesterday
High -- | Low -- °F
Precip. -- in
5:37 AM 8:36 PM
Waxing Gibbous, 88% visible
Pressure 29.98 in
Visibility -9999.0 miles
Clouds
Dew Point 51 °F
Humidity 85%
Rainfall 0.00 in
Snow Depth Not available.
UV Not available.
Pollen Not available.
Air Quality Not available.
Flu Activity Not available.
METAR LIRA 300445Z 00000KT CAVOK 12/08 Q1015

More Conditions Fewer Conditions

Pressure 29.98 in
Visibility -9999.0 miles
Clouds
Dew Point 51 °F
Humidity 85%
Rainfall 0.00 in
Snow Depth Not available.
UV Not available.
Pollen Not available.
Air Quality Not available.
Flu Activity Not available.
METAR LIRA 300445Z 00000KT CAVOK 12/08 Q1015

More Conditions Fewer Conditions

10-Day Weather Forecast

Almanac

Astronomy

May. 30, 2015 Rise Set
Actual Time
Civil Twilight
Nautical Twilight
Astronomical Twilight
Moon
Length of Visible Light
Length of Day
Tomorrow will be .
, % of the Moon is Illuminated

Today's Extremes

Country Highs Country Lows

Community

WunderPhotos

Upload Photos

1,825,459 photos uploaded!

WunderBlogs® & News

Nearby

Air Quality

  Air Quality AQ Index Pollutant
Not available.

Snow Depth

Station Depth Elevation

Earthquake Activity

City Distance Mag. Time & Date
Minimum magnitude displayed is 2.5.

Coastal Water Temperatures

Place Temperature

Stations

Nearby Weather Stations

Station Location Temp. Windchill Dew Point Humidity Wind Precip. Elev Updated Type